Time;durP1;ratioP1;P1;durP2;ratioP2;P2;SDS_P1;SDS_P2;PMS_P1;PMS_P2;Temp;Humidity;BMP_temperature;BMP_pressure;BME280_temperature;BME280_humidity;BME280_pressure;Samples;Min_cycle;Max_cycle;Signal;HPM_P1;HPM_P2
2023/05/18 00:02:00;;;;;;;38.00;19.30;;;;;;;;;;110801;1247;22566;-78
2023/05/18 00:04:27;;;;;;;32.80;20.30;;;;;;;;;;110778;1247;22384;-78
2023/05/18 00:06:57;;;;;;;30.90;18.20;;;;;;;;;;110852;1247;22391;-76
2023/05/18 00:09:24;;;;;;;31.30;18.70;;;;;;;;;;110740;1247;22382;-78
2023/05/18 00:11:51;;;;;;;31.00;19.30;;;;;;;;;;110772;1247;23201;-79
2023/05/18 00:14:17;;;;;;;31.30;17.30;;;;;;;;;;110576;1250;22571;-78
2023/05/18 00:16:44;;;;;;;39.50;20.50;;;;;;;;;;110830;1247;22935;-76
2023/05/18 00:19:13;;;;;;;37.50;20.50;;;;;;;;;;110743;1248;22314;-77
2023/05/18 00:21:40;;;;;;;39.00;20.40;;;;;;;;;;110756;1247;22534;-78
2023/05/18 00:24:09;;;;;;;30.30;18.70;;;;;;;;;;110755;1249;22993;-76
2023/05/18 00:26:39;;;;;;;37.10;20.20;;;;;;;;;;110802;1247;22680;-77
2023/05/18 00:29:05;;;;;;;31.60;19.50;;;;;;;;;;110692;1250;22365;-77
2023/05/18 00:31:35;;;;;;;32.20;21.40;;;;;;;;;;110722;1249;22543;-78
2023/05/18 00:34:02;;;;;;;35.90;21.20;;;;;;;;;;110610;1250;23782;-78
2023/05/18 00:36:30;;;;;;;38.10;22.80;;;;;;;;;;110707;1250;22452;-78
2023/05/18 00:38:56;;;;;;;34.30;20.40;;;;;;;;;;110655;1250;22496;-77
2023/05/18 00:41:25;;;;;;;40.30;21.70;;;;;;;;;;110726;1250;22395;-76
2023/05/18 00:43:52;;;;;;;41.90;21.60;;;;;;;;;;110573;1247;22555;-77
2023/05/18 00:46:18;;;;;;;40.30;20.60;;;;;;;;;;110783;1247;23230;-78
2023/05/18 00:48:44;;;;;;;36.30;21.60;;;;;;;;;;110761;1247;23151;-77
2023/05/18 00:51:11;;;;;;;39.60;21.10;;;;;;;;;;110854;1247;22417;-77
2023/05/18 00:53:37;;;;;;;41.90;23.10;;;;;;;;;;110787;1247;23092;-78
2023/05/18 00:56:03;;;;;;;35.80;21.50;;;;;;;;;;110786;1247;22310;-77
2023/05/18 00:58:30;;;;;;;43.00;23.00;;;;;;;;;;110627;1247;23257;-78
2023/05/18 01:00:56;;;;;;;44.30;22.80;;;;;;;;;;110631;1247;22517;-76
2023/05/18 01:03:23;;;;;;;35.50;21.70;;;;;;;;;;110582;1247;22554;-77
2023/05/18 01:05:54;;;;;;;39.50;22.30;;;;;;;;;;110813;1247;22377;-76
2023/05/18 01:08:23;;;;;;;44.80;22.40;;;;;;;;;;110800;1247;22585;-77
2023/05/18 01:10:51;;;;;;;32.90;21.40;;;;;;;;;;110824;1247;22472;-77
2023/05/18 01:13:30;;;;;;;36.70;21.40;;;;;;;;;;110794;1247;22573;-77
2023/05/18 01:15:56;;;;;;;37.90;21.90;;;;;;;;;;110782;1247;22217;-76
2023/05/18 01:18:27;;;;;;;43.20;22.00;;;;;;;;;;110778;1247;22317;-77
2023/05/18 01:21:12;;;;;;;34.60;21.40;;;;;;;;;;110839;1247;23232;-77
2023/05/18 01:23:59;;;;;;;36.60;22.40;;;;;;;;;;110828;1247;22880;-77
2023/05/18 01:26:28;;;;;;;40.00;22.80;;;;;;;;;;110777;1247;22439;-77
2023/05/18 01:28:55;;;;;;;40.50;21.80;;;;;;;;;;110645;1247;22498;-77
2023/05/18 01:31:22;;;;;;;40.00;22.50;;;;;;;;;;110812;1247;22312;-78
2023/05/18 01:33:48;;;;;;;40.80;22.80;;;;;;;;;;110829;1247;22429;-78
2023/05/18 01:36:14;;;;;;;37.80;20.90;;;;;;;;;;110857;1247;22439;-78
2023/05/18 01:38:41;;;;;;;35.00;21.00;;;;;;;;;;110762;1247;22367;-77
2023/05/18 01:41:07;;;;;;;36.00;21.40;;;;;;;;;;110821;1247;23176;-78
2023/05/18 01:43:34;;;;;;;41.00;24.70;;;;;;;;;;110802;1248;22517;-77
2023/05/18 01:46:09;;;;;;;39.30;22.10;;;;;;;;;;110808;1247;22523;-77
2023/05/18 01:48:37;;;;;;;41.20;22.60;;;;;;;;;;110695;1247;22358;-77
2023/05/18 01:51:03;;;;;;;35.50;21.30;;;;;;;;;;110825;1247;22559;-77
2023/05/18 01:53:34;;;;;;;38.90;21.80;;;;;;;;;;110794;1247;23137;-78
2023/05/18 01:56:00;;;;;;;36.40;20.60;;;;;;;;;;110805;1247;22700;-78
2023/05/18 01:58:27;;;;;;;33.70;20.00;;;;;;;;;;110697;1247;135022;-78
2023/05/18 02:00:54;;;;;;;34.20;19.20;;;;;;;;;;110724;1250;22971;-77
2023/05/18 02:03:20;;;;;;;33.50;19.30;;;;;;;;;;110795;1247;22492;-77
2023/05/18 02:05:46;;;;;;;30.40;18.30;;;;;;;;;;110598;1247;22990;-77
2023/05/18 02:08:13;;;;;;;34.60;18.70;;;;;;;;;;110778;1247;22451;-77
2023/05/18 02:10:39;;;;;;;34.20;19.00;;;;;;;;;;110762;1247;23125;-76
2023/05/18 02:13:06;;;;;;;31.50;17.90;;;;;;;;;;110781;1247;22357;-78
2023/05/18 02:15:32;;;;;;;32.90;19.00;;;;;;;;;;110775;1248;22537;-78
2023/05/18 02:17:59;;;;;;;31.50;18.20;;;;;;;;;;110791;1247;22556;-77
2023/05/18 02:20:25;;;;;;;40.50;18.90;;;;;;;;;;110917;1247;22287;-78
2023/05/18 02:22:51;;;;;;;29.60;16.90;;;;;;;;;;111053;1247;22160;-77
2023/05/18 02:25:18;;;;;;;31.40;19.40;;;;;;;;;;111019;1247;22367;-77
2023/05/18 02:27:44;;;;;;;32.40;18.50;;;;;;;;;;110987;1247;23083;-77
2023/05/18 02:30:11;;;;;;;35.60;19.90;;;;;;;;;;111003;1247;22325;-77
2023/05/18 02:32:37;;;;;;;34.70;19.80;;;;;;;;;;110805;1247;22239;-78
2023/05/18 02:35:04;;;;;;;33.90;19.30;;;;;;;;;;110935;1247;22310;-77
2023/05/18 02:37:33;;;;;;;35.80;19.20;;;;;;;;;;111005;1248;22208;-77
2023/05/18 02:40:00;;;;;;;36.30;19.80;;;;;;;;;;111014;1247;22365;-77
2023/05/18 02:42:26;;;;;;;40.00;20.50;;;;;;;;;;111015;1247;22412;-78
2023/05/18 02:44:52;;;;;;;34.50;19.70;;;;;;;;;;110880;1247;23748;-78
2023/05/18 02:47:18;;;;;;;40.40;18.50;;;;;;;;;;110816;1247;22489;-78
2023/05/18 02:49:45;;;;;;;32.50;17.20;;;;;;;;;;110810;1247;22402;-76
2023/05/18 02:52:11;;;;;;;33.60;20.20;;;;;;;;;;110788;1247;22875;-77
2023/05/18 02:54:37;;;;;;;33.60;17.80;;;;;;;;;;110802;1247;22460;-76
2023/05/18 02:57:04;;;;;;;37.20;18.00;;;;;;;;;;110812;1247;23745;-77
2023/05/18 02:59:30;;;;;;;34.50;18.90;;;;;;;;;;110767;1247;22463;-76
2023/05/18 03:01:56;;;;;;;34.70;19.30;;;;;;;;;;110729;1250;22429;-78
2023/05/18 03:04:24;;;;;;;39.20;20.40;;;;;;;;;;110816;1250;22348;-77
2023/05/18 03:06:51;;;;;;;29.00;17.30;;;;;;;;;;110830;1250;22755;-78
2023/05/18 03:09:18;;;;;;;26.10;16.10;;;;;;;;;;110946;1250;22448;-77
2023/05/18 03:11:45;;;;;;;27.80;17.40;;;;;;;;;;110934;1250;22399;-77
2023/05/18 03:14:11;;;;;;;30.20;17.20;;;;;;;;;;110913;1250;22733;-77
2023/05/18 03:16:38;;;;;;;31.70;15.60;;;;;;;;;;110804;1248;23155;-78
2023/05/18 03:19:04;;;;;;;25.40;15.80;;;;;;;;;;110750;1247;22430;-77
2023/05/18 03:21:34;;;;;;;23.30;15.30;;;;;;;;;;110843;1247;22328;-76
2023/05/18 03:24:01;;;;;;;27.90;15.50;;;;;;;;;;110805;1247;22501;-77
2023/05/18 03:26:29;;;;;;;28.00;16.80;;;;;;;;;;110840;1247;22888;-78
2023/05/18 03:28:56;;;;;;;29.20;16.60;;;;;;;;;;111027;1247;22376;-77
2023/05/18 03:31:23;;;;;;;28.30;15.90;;;;;;;;;;111048;1247;22328;-77
2023/05/18 03:33:49;;;;;;;21.30;14.50;;;;;;;;;;110802;1251;22213;-76
2023/05/18 03:36:15;;;;;;;31.60;15.10;;;;;;;;;;110828;1247;22358;-77
2023/05/18 03:38:45;;;;;;;20.80;14.00;;;;;;;;;;110824;1247;22464;-77
2023/05/18 03:41:11;;;;;;;27.50;15.40;;;;;;;;;;110749;1247;22649;-77
2023/05/18 03:43:37;;;;;;;25.50;14.50;;;;;;;;;;110903;1247;22563;-77
2023/05/18 03:46:04;;;;;;;24.50;14.50;;;;;;;;;;110812;1247;22440;-76
2023/05/18 03:48:30;;;;;;;22.70;14.10;;;;;;;;;;110820;1247;23032;-78
2023/05/18 03:50:57;;;;;;;24.40;15.90;;;;;;;;;;110797;1247;22481;-76
2023/05/18 03:53:23;;;;;;;24.80;13.70;;;;;;;;;;110788;1247;22333;-77
2023/05/18 03:55:50;;;;;;;26.10;15.50;;;;;;;;;;110831;1247;22455;-76
2023/05/18 03:58:18;;;;;;;26.50;15.60;;;;;;;;;;110807;1247;22417;-77
2023/05/18 04:00:46;;;;;;;23.40;15.30;;;;;;;;;;110803;1247;23046;-77
2023/05/18 04:03:13;;;;;;;20.80;11.60;;;;;;;;;;110680;1250;22457;-76
2023/05/18 04:05:43;;;;;;;16.30;11.60;;;;;;;;;;110683;1250;22549;-77
2023/05/18 04:08:13;;;;;;;12.40;9.70;;;;;;;;;;110780;1247;22968;-77
2023/05/18 04:10:42;;;;;;;17.40;11.60;;;;;;;;;;110802;1247;22412;-77
2023/05/18 04:13:09;;;;;;;18.00;11.70;;;;;;;;;;110809;1247;23173;-76
2023/05/18 04:15:35;;;;;;;18.90;12.70;;;;;;;;;;110604;1247;22372;-77
2023/05/18 04:18:02;;;;;;;16.50;11.10;;;;;;;;;;110748;1250;22540;-76
2023/05/18 04:20:28;;;;;;;17.50;12.30;;;;;;;;;;110700;1250;22439;-77
2023/05/18 04:22:56;;;;;;;16.00;10.90;;;;;;;;;;110718;1250;23099;-76
2023/05/18 04:25:28;;;;;;;16.20;10.60;;;;;;;;;;110688;1250;22304;-78
2023/05/18 04:27:55;;;;;;;27.80;14.50;;;;;;;;;;110685;1249;23275;-77
2023/05/18 04:30:22;;;;;;;35.30;16.40;;;;;;;;;;110781;1247;22726;-76
2023/05/18 04:32:48;;;;;;;23.30;13.70;;;;;;;;;;110575;1247;22510;-77
2023/05/18 04:35:15;;;;;;;12.00;8.10;;;;;;;;;;110836;1247;22467;-77
2023/05/18 04:37:42;;;;;;;13.10;9.60;;;;;;;;;;110799;1247;22992;-76
2023/05/18 04:40:12;;;;;;;14.20;9.00;;;;;;;;;;110794;1247;22514;-77
2023/05/18 04:42:44;;;;;;;14.30;8.70;;;;;;;;;;110792;1248;22295;-77
2023/05/18 04:45:11;;;;;;;10.70;8.00;;;;;;;;;;110835;1247;23183;-76
2023/05/18 04:47:39;;;;;;;10.80;7.10;;;;;;;;;;110803;1248;22635;-77
2023/05/18 04:50:05;;;;;;;11.70;7.70;;;;;;;;;;110787;1247;22987;-78
2023/05/18 04:52:35;;;;;;;9.20;7.00;;;;;;;;;;110776;1248;22434;-76
2023/05/18 04:55:02;;;;;;;10.80;6.60;;;;;;;;;;110802;1247;22476;-77
2023/05/18 04:57:28;;;;;;;7.40;5.80;;;;;;;;;;110726;1250;22381;-76
2023/05/18 04:59:54;;;;;;;8.60;6.50;;;;;;;;;;110735;1249;23015;-76
2023/05/18 05:02:21;;;;;;;6.10;5.20;;;;;;;;;;110757;1248;22439;-76
2023/05/18 05:04:47;;;;;;;7.90;6.20;;;;;;;;;;110763;1247;22466;-76
2023/05/18 05:07:13;;;;;;;10.20;8.30;;;;;;;;;;110823;1247;22496;-77
2023/05/18 05:09:40;;;;;;;16.90;8.60;;;;;;;;;;110763;1247;22544;-77
2023/05/18 05:12:06;;;;;;;10.30;5.80;;;;;;;;;;110833;1248;22281;-76
2023/05/18 05:14:33;;;;;;;10.80;4.80;;;;;;;;;;110829;1247;22532;-77
2023/05/18 05:16:59;;;;;;;10.80;5.70;;;;;;;;;;110716;1247;22597;-77
2023/05/18 05:19:25;;;;;;;9.70;4.70;;;;;;;;;;110826;1247;22457;-77
2023/05/18 05:21:51;;;;;;;5.60;4.00;;;;;;;;;;110834;1247;22252;-76
2023/05/18 05:24:18;;;;;;;3.70;2.70;;;;;;;;;;110833;1247;22204;-77
2023/05/18 05:26:44;;;;;;;6.30;2.40;;;;;;;;;;110770;1247;22166;-78
2023/05/18 05:29:11;;;;;;;5.70;2.90;;;;;;;;;;110754;1247;22272;-77
2023/05/18 05:31:37;;;;;;;10.90;3.70;;;;;;;;;;110758;1247;22284;-76
2023/05/18 05:34:03;;;;;;;7.10;3.00;;;;;;;;;;110801;1247;23054;-76
2023/05/18 05:36:30;;;;;;;8.70;3.30;;;;;;;;;;110824;1247;22350;-77
2023/05/18 05:38:57;;;;;;;9.30;4.30;;;;;;;;;;110767;1247;23114;-76
2023/05/18 05:41:23;;;;;;;13.20;3.90;;;;;;;;;;110786;1247;23053;-78
2023/05/18 05:43:49;;;;;;;15.40;6.50;;;;;;;;;;110751;1247;22401;-76
2023/05/18 05:46:16;;;;;;;10.00;5.00;;;;;;;;;;110767;1247;22255;-77
2023/05/18 05:48:42;;;;;;;7.70;3.40;;;;;;;;;;110767;1252;22503;-77
2023/05/18 05:51:08;;;;;;;15.60;5.20;;;;;;;;;;110775;1247;22481;-76
2023/05/18 05:53:35;;;;;;;10.60;5.10;;;;;;;;;;110784;1247;22466;-76
2023/05/18 05:56:01;;;;;;;13.50;4.90;;;;;;;;;;110773;1250;22491;-77
2023/05/18 05:58:27;;;;;;;14.50;4.20;;;;;;;;;;110801;1247;22325;-77
2023/05/18 06:00:54;;;;;;;13.60;4.80;;;;;;;;;;110779;1247;22602;-76
2023/05/18 06:03:20;;;;;;;14.00;3.80;;;;;;;;;;110698;1247;22390;-77
2023/05/18 06:05:47;;;;;;;19.40;6.40;;;;;;;;;;110677;1247;22491;-77
2023/05/18 06:08:14;;;;;;;11.70;5.00;;;;;;;;;;110609;1249;22953;-76
2023/05/18 06:10:40;;;;;;;10.20;2.90;;;;;;;;;;110732;1249;22433;-77
2023/05/18 06:13:07;;;;;;;15.60;5.20;;;;;;;;;;110692;1250;23295;-77
2023/05/18 06:15:33;;;;;;;11.20;4.30;;;;;;;;;;110697;1250;23930;-77
2023/05/18 06:18:00;;;;;;;12.00;4.30;;;;;;;;;;110591;1249;23811;-77
2023/05/18 06:20:28;;;;;;;12.70;4.50;;;;;;;;;;110765;1247;23187;-76
2023/05/18 06:22:55;;;;;;;15.60;5.20;;;;;;;;;;110666;1250;23089;-77
2023/05/18 06:25:21;;;;;;;19.20;5.00;;;;;;;;;;110683;1250;22424;-78
2023/05/18 06:27:47;;;;;;;13.10;3.80;;;;;;;;;;110804;1247;22543;-76
2023/05/18 06:30:14;;;;;;;12.00;4.40;;;;;;;;;;110688;1251;23227;-77
2023/05/18 06:32:40;;;;;;;20.90;7.50;;;;;;;;;;110645;1250;23113;-77
2023/05/18 06:35:07;;;;;;;13.90;5.60;;;;;;;;;;110691;1249;22453;-76
2023/05/18 06:37:33;;;;;;;13.60;5.90;;;;;;;;;;110725;1249;23155;-79
2023/05/18 06:40:00;;;;;;;15.80;6.90;;;;;;;;;;110647;1250;22615;-78
2023/05/18 06:42:26;;;;;;;14.60;4.30;;;;;;;;;;110659;1248;23247;-77
2023/05/18 06:44:52;;;;;;;9.90;4.80;;;;;;;;;;110661;1249;22909;-76
2023/05/18 06:47:18;;;;;;;8.20;4.00;;;;;;;;;;110684;1249;22283;-76
2023/05/18 06:49:45;;;;;;;14.40;4.30;;;;;;;;;;110749;1250;23104;-77
2023/05/18 06:52:12;;;;;;;7.10;3.60;;;;;;;;;;110609;1253;23080;-76
2023/05/18 06:54:39;;;;;;;18.60;4.90;;;;;;;;;;110634;1250;23434;-76
2023/05/18 06:57:05;;;;;;;12.00;5.10;;;;;;;;;;110660;1250;23089;-77
2023/05/18 06:59:33;;;;;;;17.10;7.00;;;;;;;;;;110701;1249;22436;-77
2023/05/18 07:01:59;;;;;;;15.10;8.30;;;;;;;;;;110711;1249;23123;-78
2023/05/18 07:04:26;;;;;;;10.10;5.80;;;;;;;;;;110656;1248;22419;-76
2023/05/18 07:06:54;;;;;;;16.80;10.00;;;;;;;;;;110604;1250;23962;-77
2023/05/18 07:09:21;;;;;;;21.50;13.90;;;;;;;;;;110568;1250;23071;-78
2023/05/18 07:11:48;;;;;;;18.80;11.90;;;;;;;;;;110638;1249;22412;-77
2023/05/18 07:14:14;;;;;;;9.20;4.70;;;;;;;;;;110496;1250;22339;-77
2023/05/18 07:16:42;;;;;;;9.90;4.00;;;;;;;;;;110710;1249;23165;-78
2023/05/18 07:19:08;;;;;;;12.60;4.20;;;;;;;;;;110654;1250;22353;-77
2023/05/18 07:21:34;;;;;;;17.80;9.00;;;;;;;;;;110813;1251;22323;-77
2023/05/18 07:24:01;;;;;;;18.70;9.40;;;;;;;;;;110752;1250;22552;-76
2023/05/18 07:26:27;;;;;;;13.60;5.20;;;;;;;;;;110812;1248;22482;-77
2023/05/18 07:28:54;;;;;;;11.20;4.20;;;;;;;;;;110676;1249;22880;-76
2023/05/18 07:31:20;;;;;;;14.90;5.40;;;;;;;;;;110778;1248;23320;-78
2023/05/18 07:33:47;;;;;;;12.70;4.90;;;;;;;;;;110725;1249;22335;-77
2023/05/18 07:36:13;;;;;;;8.90;4.80;;;;;;;;;;110605;1250;22402;-77
2023/05/18 07:38:40;;;;;;;10.40;4.50;;;;;;;;;;110757;1248;22379;-77
2023/05/18 07:41:06;;;;;;;10.30;4.00;;;;;;;;;;110689;1250;22207;-76
2023/05/18 07:43:33;;;;;;;13.00;5.00;;;;;;;;;;110581;1250;22467;-77
2023/05/18 07:45:59;;;;;;;13.70;6.60;;;;;;;;;;110610;1250;23425;-77
2023/05/18 07:48:26;;;;;;;13.80;6.00;;;;;;;;;;110619;1250;22546;-77
2023/05/18 07:50:52;;;;;;;14.10;5.30;;;;;;;;;;110611;1250;23072;-77
2023/05/18 07:53:19;;;;;;;12.40;4.00;;;;;;;;;;110578;1250;23268;-77
2023/05/18 07:55:46;;;;;;;14.50;4.50;;;;;;;;;;110755;1250;22444;-77
2023/05/18 07:58:13;;;;;;;9.70;5.30;;;;;;;;;;110691;1250;22430;-78
2023/05/18 08:00:40;;;;;;;7.50;3.70;;;;;;;;;;110637;1250;23318;-78
2023/05/18 08:03:07;;;;;;;10.10;5.40;;;;;;;;;;110613;1250;22427;-77
2023/05/18 08:05:33;;;;;;;10.20;4.40;;;;;;;;;;110583;1251;23497;-76
2023/05/18 08:08:01;;;;;;;11.10;5.40;;;;;;;;;;110617;1250;23884;-78
2023/05/18 08:10:28;;;;;;;10.80;5.60;;;;;;;;;;110583;1250;22167;-77
2023/05/18 08:12:54;;;;;;;12.90;4.50;;;;;;;;;;110557;1250;22820;-77
2023/05/18 08:15:21;;;;;;;19.10;6.60;;;;;;;;;;110602;1250;23089;-77
2023/05/18 08:17:47;;;;;;;16.30;7.40;;;;;;;;;;110592;1252;22512;-75
2023/05/18 08:20:14;;;;;;;15.80;7.50;;;;;;;;;;110580;1250;22528;-78
2023/05/18 08:22:40;;;;;;;18.60;8.80;;;;;;;;;;110601;1251;23050;-77
2023/05/18 08:25:06;;;;;;;18.30;10.20;;;;;;;;;;110533;1249;22302;-77
2023/05/18 08:27:33;;;;;;;13.50;8.30;;;;;;;;;;110508;1250;22436;-77
2023/05/18 08:29:59;;;;;;;13.90;7.70;;;;;;;;;;110576;1250;22496;-77
2023/05/18 08:32:26;;;;;;;12.50;5.90;;;;;;;;;;110603;1251;22825;-77
2023/05/18 08:34:53;;;;;;;9.30;4.30;;;;;;;;;;110786;1251;22682;-77
2023/05/18 08:37:20;;;;;;;11.30;5.30;;;;;;;;;;110808;1252;22462;-78
2023/05/18 08:39:47;;;;;;;8.80;3.40;;;;;;;;;;110746;1251;22329;-77
2023/05/18 08:42:32;;;;;;;14.00;4.60;;;;;;;;;;110644;1250;23282;-77
2023/05/18 08:45:06;;;;;;;10.00;4.40;;;;;;;;;;110624;1251;22476;-76
2023/05/18 08:47:33;;;;;;;9.90;4.60;;;;;;;;;;110749;1248;22519;-79
2023/05/18 08:49:59;;;;;;;12.20;4.00;;;;;;;;;;110725;1248;22906;-77
2023/05/18 08:52:26;;;;;;;6.20;3.80;;;;;;;;;;110565;1250;22495;-76
2023/05/18 08:54:53;;;;;;;9.00;4.10;;;;;;;;;;110644;1248;22472;-77
2023/05/18 08:57:19;;;;;;;10.80;4.50;;;;;;;;;;110651;1251;23137;-78
2023/05/18 08:59:46;;;;;;;8.30;3.50;;;;;;;;;;110580;1250;23182;-78
2023/05/18 09:02:12;;;;;;;9.10;4.10;;;;;;;;;;110635;1250;22327;-76
2023/05/18 09:04:39;;;;;;;10.60;5.50;;;;;;;;;;110619;1250;22970;-77
2023/05/18 09:07:06;;;;;;;7.60;2.70;;;;;;;;;;110596;1249;22562;-78
2023/05/18 09:09:33;;;;;;;6.60;2.40;;;;;;;;;;110469;1251;22645;-76
2023/05/18 09:11:59;;;;;;;8.10;3.10;;;;;;;;;;110541;1248;22503;-77
2023/05/18 09:14:26;;;;;;;7.30;2.30;;;;;;;;;;110565;1250;23278;-78
2023/05/18 09:16:52;;;;;;;3.20;2.00;;;;;;;;;;110609;1251;22539;-77
2023/05/18 09:19:18;;;;;;;5.10;3.70;;;;;;;;;;110716;1247;23024;-76
2023/05/18 09:21:45;;;;;;;7.10;2.60;;;;;;;;;;110386;1253;22372;-78
2023/05/18 09:24:12;;;;;;;12.10;3.60;;;;;;;;;;110741;1250;23123;-77
2023/05/18 09:26:38;;;;;;;9.60;2.70;;;;;;;;;;110610;1250;24085;-76
2023/05/18 09:29:14;;;;;;;12.30;6.10;;;;;;;;;;110577;1251;23918;-76
2023/05/18 09:31:41;;;;;;;4.70;2.80;;;;;;;;;;110652;1250;22580;-76
2023/05/18 09:34:07;;;;;;;6.80;3.00;;;;;;;;;;110555;1249;22480;-78
2023/05/18 09:36:33;;;;;;;10.20;2.70;;;;;;;;;;110628;1249;22292;-77
2023/05/18 09:39:00;;;;;;;6.30;2.60;;;;;;;;;;110582;1250;22531;-76
2023/05/18 09:41:27;;;;;;;9.30;2.70;;;;;;;;;;110458;1251;23354;-77
2023/05/18 09:43:53;;;;;;;4.20;2.60;;;;;;;;;;110694;1251;22458;-77
2023/05/18 09:46:19;;;;;;;7.80;3.30;;;;;;;;;;110561;1251;22967;-77
2023/05/18 09:48:47;;;;;;;7.10;3.70;;;;;;;;;;110488;1254;22195;-76
2023/05/18 09:51:16;;;;;;;8.40;3.20;;;;;;;;;;110529;1249;22446;-78
2023/05/18 09:53:46;;;;;;;6.00;3.30;;;;;;;;;;110641;1251;23700;-77
2023/05/18 09:56:14;;;;;;;9.90;4.10;;;;;;;;;;110649;1250;23138;-78
2023/05/18 09:58:40;;;;;;;6.40;4.00;;;;;;;;;;110474;1251;23110;-77
2023/05/18 10:01:06;;;;;;;7.80;4.70;;;;;;;;;;110578;1251;22578;-76
2023/05/18 10:03:37;;;;;;;7.20;3.90;;;;;;;;;;110646;1251;22602;-77
2023/05/18 10:06:05;;;;;;;6.90;3.90;;;;;;;;;;110616;1253;22982;-78
2023/05/18 10:08:31;;;;;;;8.70;3.10;;;;;;;;;;110567;1251;23285;-78
2023/05/18 10:10:58;;;;;;;13.00;3.70;;;;;;;;;;110576;1251;22353;-77
2023/05/18 10:13:25;;;;;;;4.90;3.60;;;;;;;;;;110557;1253;22368;-76
2023/05/18 10:15:53;;;;;;;6.10;2.60;;;;;;;;;;110634;1251;22984;-77
2023/05/18 10:18:23;;;;;;;7.00;4.40;;;;;;;;;;110707;1250;22437;-78
2023/05/18 10:20:49;;;;;;;7.20;3.70;;;;;;;;;;110711;1247;23519;-77
2023/05/18 10:23:16;;;;;;;6.80;2.90;;;;;;;;;;110743;1247;22408;-77
2023/05/18 10:25:43;;;;;;;8.50;3.00;;;;;;;;;;110742;1247;22549;-77
2023/05/18 10:28:10;;;;;;;5.90;2.90;;;;;;;;;;110733;1248;22526;-77
2023/05/18 10:30:37;;;;;;;7.10;3.70;;;;;;;;;;110702;1249;22627;-77
2023/05/18 10:33:03;;;;;;;11.10;5.00;;;;;;;;;;110621;1251;22350;-77
2023/05/18 10:35:30;;;;;;;5.10;3.20;;;;;;;;;;110561;1250;22601;-78
2023/05/18 10:37:56;;;;;;;10.00;4.20;;;;;;;;;;110495;1251;22556;-77
2023/05/18 10:40:23;;;;;;;5.30;3.70;;;;;;;;;;110647;1251;22567;-77
2023/05/18 10:42:49;;;;;;;10.20;3.60;;;;;;;;;;110548;1249;22414;-77
2023/05/18 10:45:15;;;;;;;6.30;3.70;;;;;;;;;;110568;1250;22519;-77
2023/05/18 10:47:42;;;;;;;14.20;9.50;;;;;;;;;;110571;1253;22452;-76
2023/05/18 10:50:08;;;;;;;9.50;5.40;;;;;;;;;;110793;1248;22488;-77
2023/05/18 10:52:38;;;;;;;8.90;5.40;;;;;;;;;;110760;1251;23189;-78
2023/05/18 10:55:04;;;;;;;8.30;4.30;;;;;;;;;;110455;1251;22582;-78
2023/05/18 10:57:37;;;;;;;6.50;3.40;;;;;;;;;;110590;1251;23189;-78
2023/05/18 11:00:04;;;;;;;6.20;3.80;;;;;;;;;;110564;1248;22554;-76
2023/05/18 11:02:31;;;;;;;6.40;3.50;;;;;;;;;;110532;1248;22404;-76
2023/05/18 11:04:57;;;;;;;8.30;4.80;;;;;;;;;;110619;1249;22339;-78
2023/05/18 11:07:27;;;;;;;8.80;5.40;;;;;;;;;;110573;1250;22639;-78
2023/05/18 11:09:54;;;;;;;5.10;2.80;;;;;;;;;;110642;1251;22810;-76
2023/05/18 11:12:20;;;;;;;7.30;4.50;;;;;;;;;;110581;1249;22280;-76
2023/05/18 11:14:50;;;;;;;7.90;3.70;;;;;;;;;;110422;1255;22271;-77
2023/05/18 11:17:18;;;;;;;5.00;3.30;;;;;;;;;;110564;1250;22432;-77
2023/05/18 11:20:08;;;;;;;8.90;5.30;;;;;;;;;;110828;1250;22503;-77
2023/05/18 11:22:52;;;;;;;6.00;3.10;;;;;;;;;;110781;1251;22323;-78
2023/05/18 11:25:31;;;;;;;5.30;3.60;;;;;;;;;;110754;1251;22286;-76
2023/05/18 11:28:00;;;;;;;5.30;3.50;;;;;;;;;;110853;1251;22809;-76
2023/05/18 11:30:32;;;;;;;7.20;5.20;;;;;;;;;;110763;1248;22554;-77
2023/05/18 11:33:08;;;;;;;10.40;4.40;;;;;;;;;;110552;1251;22287;-78
2023/05/18 11:35:53;;;;;;;11.10;6.80;;;;;;;;;;110644;1251;22546;-76
2023/05/18 11:38:20;;;;;;;12.30;8.60;;;;;;;;;;110706;1247;22603;-78
2023/05/18 11:40:46;;;;;;;10.20;6.80;;;;;;;;;;110611;1249;22222;-78
2023/05/18 11:43:22;;;;;;;7.20;5.60;;;;;;;;;;110528;1251;22489;-79
2023/05/18 11:45:53;;;;;;;9.80;3.90;;;;;;;;;;110737;1248;22618;-76
2023/05/18 11:48:20;;;;;;;11.20;7.50;;;;;;;;;;110648;1249;22913;-77
2023/05/18 11:50:46;;;;;;;6.50;4.60;;;;;;;;;;110679;1247;22567;-76
2023/05/18 11:53:16;;;;;;;6.60;4.80;;;;;;;;;;110724;1253;23062;-78
2023/05/18 11:55:44;;;;;;;7.40;4.90;;;;;;;;;;110698;1248;22393;-76
2023/05/18 11:58:13;;;;;;;8.70;6.90;;;;;;;;;;110605;1248;22728;-78
2023/05/18 12:00:39;;;;;;;10.10;5.50;;;;;;;;;;110690;1247;22752;-78
2023/05/18 12:03:06;;;;;;;11.20;5.30;;;;;;;;;;110687;1247;22361;-78
2023/05/18 12:05:34;;;;;;;6.30;4.80;;;;;;;;;;110684;1249;22303;-77
2023/05/18 12:08:00;;;;;;;8.00;5.20;;;;;;;;;;110498;1251;23047;-76
2023/05/18 12:10:27;;;;;;;8.30;6.00;;;;;;;;;;110576;1251;22447;-77
2023/05/18 12:12:53;;;;;;;7.80;5.40;;;;;;;;;;110633;1251;22473;-78
2023/05/18 12:15:20;;;;;;;5.90;4.00;;;;;;;;;;110633;1251;22337;-76
2023/05/18 12:17:47;;;;;;;13.60;7.60;;;;;;;;;;110658;1250;22490;-77
2023/05/18 12:20:14;;;;;;;17.40;9.50;;;;;;;;;;110731;1248;22298;-78
2023/05/18 12:22:45;;;;;;;8.30;4.40;;;;;;;;;;110496;1251;22471;-76
2023/05/18 12:25:11;;;;;;;11.30;7.00;;;;;;;;;;110612;1249;23126;-76
2023/05/18 12:27:40;;;;;;;8.40;5.10;;;;;;;;;;110566;1250;22467;-76
2023/05/18 12:30:07;;;;;;;;;;;;;;;;;;110596;1251;22553;-78
2023/05/18 12:32:33;;;;;;;6.50;4.30;;;;;;;;;;110703;1247;22367;-78
2023/05/18 12:35:00;;;;;;;5.20;4.30;;;;;;;;;;110732;1247;23156;-76
2023/05/18 12:37:26;;;;;;;5.60;4.00;;;;;;;;;;110725;1250;22371;-78
2023/05/18 12:39:55;;;;;;;5.50;3.00;;;;;;;;;;110644;1250;22731;-77
2023/05/18 12:42:21;;;;;;;;;;;;;;;;;;110634;1248;22546;-76
2023/05/18 12:44:49;;;;;;;4.80;3.10;;;;;;;;;;110598;1250;23170;-78
2023/05/18 12:47:15;;;;;;;6.90;3.80;;;;;;;;;;110732;1247;22298;-77
2023/05/18 12:49:43;;;;;;;4.80;2.00;;;;;;;;;;110749;1251;23162;-77
2023/05/18 12:52:10;;;;;;;3.50;2.80;;;;;;;;;;110538;1249;22633;-77
2023/05/18 12:54:48;;;;;;;4.80;3.00;;;;;;;;;;110723;1247;22352;-77
2023/05/18 12:57:15;;;;;;;4.90;3.70;;;;;;;;;;110712;1250;22586;-77
2023/05/18 12:59:49;;;;;;;4.60;3.30;;;;;;;;;;110630;1249;22468;-78
2023/05/18 13:02:28;;;;;;;13.50;3.90;;;;;;;;;;110714;1247;22467;-76
2023/05/18 13:05:10;;;;;;;6.80;4.80;;;;;;;;;;110679;1249;22333;-78
2023/05/18 13:07:41;;;;;;;5.10;3.60;;;;;;;;;;110680;1247;22482;-78
2023/05/18 13:10:08;;;;;;;4.00;3.60;;;;;;;;;;110680;1249;22626;-78
2023/05/18 13:12:39;;;;;;;7.00;4.70;;;;;;;;;;110737;1247;22432;-77
2023/05/18 13:15:08;;;;;;;7.90;4.40;;;;;;;;;;110724;1247;22261;-78
2023/05/18 13:17:35;;;;;;;7.90;4.10;;;;;;;;;;110702;1247;22474;-77
2023/05/18 13:20:02;;;;;;;8.80;4.10;;;;;;;;;;110729;1248;22228;-78
2023/05/18 13:22:28;;;;;;;7.50;4.20;;;;;;;;;;110540;1249;22725;-76
2023/05/18 13:24:54;;;;;;;7.20;4.00;;;;;;;;;;110622;1250;23257;-78
2023/05/18 13:27:21;;;;;;;6.50;4.90;;;;;;;;;;110654;1249;22477;-76
2023/05/18 13:29:47;;;;;;;5.60;3.30;;;;;;;;;;110674;1250;22275;-77
2023/05/18 13:32:13;;;;;;;5.10;3.10;;;;;;;;;;110621;1251;23171;-76
2023/05/18 13:34:41;;;;;;;3.90;2.20;;;;;;;;;;110654;1249;22457;-78
2023/05/18 13:37:08;;;;;;;6.90;3.70;;;;;;;;;;110713;1247;23029;-78
2023/05/18 13:39:34;;;;;;;8.00;4.60;;;;;;;;;;110678;1248;22816;-76
2023/05/18 13:42:01;;;;;;;7.00;4.00;;;;;;;;;;110745;1247;22288;-76
2023/05/18 13:44:28;;;;;;;4.40;3.60;;;;;;;;;;110655;1248;22471;-76
2023/05/18 13:46:54;;;;;;;4.00;3.20;;;;;;;;;;110722;1247;22413;-78
2023/05/18 13:49:20;;;;;;;6.40;4.50;;;;;;;;;;110622;1250;22433;-78
2023/05/18 13:51:47;;;;;;;6.60;4.40;;;;;;;;;;110618;1249;22433;-76
2023/05/18 13:54:14;;;;;;;6.30;3.80;;;;;;;;;;110608;1250;23101;-77
2023/05/18 13:56:40;;;;;;;8.30;7.40;;;;;;;;;;110637;1249;22927;-76
2023/05/18 13:59:07;;;;;;;11.40;8.10;;;;;;;;;;110679;1250;131429;-78
2023/05/18 14:01:33;;;;;;;4.70;3.50;;;;;;;;;;110914;1247;22229;-78
2023/05/18 14:03:59;;;;;;;3.80;3.00;;;;;;;;;;110969;1247;22421;-78
2023/05/18 14:06:26;;;;;;;4.00;3.00;;;;;;;;;;110754;1247;22661;-78
2023/05/18 14:08:53;;;;;;;3.20;2.90;;;;;;;;;;110748;1247;22515;-78
2023/05/18 14:11:20;;;;;;;4.00;2.90;;;;;;;;;;110775;1247;23047;-78
2023/05/18 14:13:46;;;;;;;6.00;3.00;;;;;;;;;;110774;1247;23016;-78
2023/05/18 14:16:13;;;;;;;3.10;2.30;;;;;;;;;;110756;1247;22879;-78
2023/05/18 14:18:39;;;;;;;2.60;1.80;;;;;;;;;;110859;1247;22262;-76
2023/05/18 14:21:05;;;;;;;5.10;2.10;;;;;;;;;;110956;1247;22323;-77